Alsea, Oregon
Current Conditions -  °F | °C
As of 4:35 PM on Saturday 25 Oct 2014 (Local Time) from KCVO Reporting Station
Overcast Overcast  
Wind Chill: 57°   Ceiling: 4100
Heat Index: 57°   Visibility: 10mi
Dew Point: 52°   Wind: 16mph
Humidity: 82%   Direction: 220°SW
Pressure: 29.63"   Gusts: NA
Location:  44.38°N, 123.6°W
Report Text: KCVO 252335Z AUTO 22014KT 10SM SCT033 BKN041 OVC050 14/11 A2963 RMK AO1
Loading
Personal Weather Stations






























Interactive Weather Map
Tropical Storm Tracking
New forecast layout! Learn more

10-Day Weather Forecast

Advertisements
Track Severe Weather on mobile